aviador You're here:

KBKB Decoded Metar

FULLERTON/POLK in LA, USA
Report Time2017-09-26 02:54:00
UTC Time2017-09-26 03:48:04
Flight Rules vfr VFR
WindCalm
Visibility9999 m
Phenomena:N/A
Clouds:Few 055 Hf
Expected CloudBase > 800 ft AGL from Temp-Dew spread
CeilingNone
Temp23°C (ISA +9)
Dew Point21°C (89% RH)
QNH1012 hPa
Density Alt1,673 ft
Elevation308 ft
Report Wrong Elevation
Raw Report
KBKB 260254Z AUTO 00000KT 10SM FEW055 23/21 A2987 RMK AO2 SLP139
T02280211 53017=

Extra information for KBKB:More info

Metar Taf Metar & Taf Last 4 Metars F.Rules Stats Wind Profile Meteogram Temp Stats Airport Information Weather charts Add Link Nearby VenuesMetar ALERT Operation Metar Decoded Social comments

AIRNAV info for KBKB